createdAt,value
2023-03-24T00:00:17.762Z,12.17
2023-03-24T00:02:46.515Z,12.15
2023-03-24T00:05:16.137Z,12.16
2023-03-24T00:07:43.446Z,12.13
2023-03-24T00:10:14.834Z,12.16
2023-03-24T00:12:42.523Z,12.16
2023-03-24T00:15:19.213Z,12.13
2023-03-24T00:17:50.088Z,12.14
2023-03-24T00:20:19.873Z,12.16
2023-03-24T00:22:49.534Z,12.13
2023-03-24T00:25:18.281Z,12.15
2023-03-24T00:27:45.203Z,12.13
2023-03-24T00:30:12.931Z,12.14
2023-03-24T00:32:39.399Z,12.16
2023-03-24T00:35:08.826Z,12.15
2023-03-24T00:37:37.457Z,12.14
2023-03-24T00:40:08.045Z,12.15
2023-03-24T00:42:37.133Z,12.15
2023-03-24T00:45:05.502Z,12.12
2023-03-24T00:47:36.754Z,12.10
2023-03-24T00:50:13.816Z,12.11
2023-03-24T00:52:44.098Z,12.13
2023-03-24T00:55:15.908Z,12.13
2023-03-24T00:57:50.390Z,12.12
2023-03-24T01:00:24.054Z,12.12
2023-03-24T01:02:55.066Z,12.13
2023-03-24T01:05:24.012Z,12.13
2023-03-24T01:07:56.370Z,12.13
2023-03-24T01:10:26.209Z,12.13
2023-03-24T01:12:56.089Z,12.10
2023-03-24T01:15:24.711Z,12.06
2023-03-24T01:17:53.313Z,12.12
2023-03-24T01:20:22.914Z,12.13
2023-03-24T01:22:50.908Z,12.11
2023-03-24T01:25:22.728Z,12.12
2023-03-24T01:27:50.825Z,12.12
2023-03-24T01:30:21.665Z,12.12
2023-03-24T01:32:48.818Z,12.09
2023-03-24T01:35:16.295Z,12.12
2023-03-24T01:37:42.783Z,12.11
2023-03-24T01:40:16.221Z,12.11
2023-03-24T01:42:42.684Z,12.09
2023-03-24T01:45:37.123Z,12.09
2023-03-24T01:48:04.397Z,12.07
2023-03-24T01:50:31.483Z,12.09
2023-03-24T01:52:59.577Z,12.07
2023-03-24T01:55:26.585Z,12.11
2023-03-24T01:57:57.890Z,12.10
2023-03-24T02:00:30.765Z,12.07
2023-03-24T02:03:20.859Z,12.10
2023-03-24T02:05:54.671Z,12.10
2023-03-24T02:08:48.353Z,12.08
2023-03-24T02:11:14.846Z,12.07
2023-03-24T02:13:51.605Z,12.10
2023-03-24T02:16:56.193Z,12.07
2023-03-24T02:19:53.527Z,12.06
2023-03-24T02:22:47.892Z,12.07
2023-03-24T02:25:26.453Z,12.07
2023-03-24T02:28:23.411Z,12.06
2023-03-24T02:31:29.115Z,12.05
2023-03-24T02:34:16.971Z,12.03
2023-03-24T02:37:04.735Z,12.05
2023-03-24T02:39:50.915Z,12.01
2023-03-24T02:42:48.884Z,12.03
2023-03-24T02:45:43.496Z,12.03
2023-03-24T02:48:34.620Z,12.02
2023-03-24T02:51:13.315Z,12.03
2023-03-24T02:54:00.627Z,12.03
2023-03-24T02:56:58.197Z,12.02
2023-03-24T02:59:49.478Z,12.02
2023-03-24T03:02:45.710Z,12.03
2023-03-24T03:05:28.868Z,12.02
2023-03-24T03:08:01.400Z,12.04
2023-03-24T03:10:33.509Z,12.04
2023-03-24T03:13:06.947Z,12.06
2023-03-24T03:15:38.651Z,12.06
2023-03-24T03:18:18.677Z,12.04
2023-03-24T03:20:52.985Z,12.06
2023-03-24T03:23:26.241Z,12.07
2023-03-24T03:26:05.709Z,12.04
2023-03-24T03:28:36.574Z,12.07
2023-03-24T03:31:08.374Z,12.04
2023-03-24T03:33:40.987Z,12.06
2023-03-24T03:36:29.315Z,12.04
2023-03-24T03:39:16.281Z,12.07
2023-03-24T03:41:43.892Z,12.07
2023-03-24T03:44:11.231Z,11.99
2023-03-24T03:46:38.466Z,12.07
2023-03-24T03:49:08.970Z,12.06
2023-03-24T03:51:35.821Z,12.09
2023-03-24T03:54:08.930Z,12.10
2023-03-24T03:56:37.257Z,12.07
2023-03-24T03:59:34.039Z,12.08
2023-03-24T04:02:08.758Z,12.07
2023-03-24T04:04:53.251Z,12.11
2023-03-24T04:08:27.785Z,12.08
2023-03-24T04:11:19.459Z,12.08
2023-03-24T04:14:33.501Z,12.10
2023-03-24T04:17:31.693Z,12.09
2023-03-24T04:20:54.234Z,12.05
2023-03-24T04:23:50.682Z,12.07
2023-03-24T04:26:29.084Z,12.08
2023-03-24T04:29:17.734Z,12.07
2023-03-24T04:31:53.711Z,12.08
2023-03-24T04:34:37.778Z,12.07
2023-03-24T04:37:26.650Z,12.11
2023-03-24T04:40:11.249Z,12.11
2023-03-24T04:42:45.260Z,12.12
2023-03-24T04:45:12.920Z,12.09
2023-03-24T04:47:59.889Z,12.09
2023-03-24T04:50:45.473Z,12.12
2023-03-24T04:53:17.330Z,12.09
2023-03-24T04:55:49.973Z,12.15
2023-03-24T04:58:25.945Z,12.10
2023-03-24T05:00:52.857Z,12.12
2023-03-24T05:03:19.447Z,12.13
2023-03-24T05:05:48.968Z,12.18
2023-03-24T05:08:17.496Z,12.14
2023-03-24T05:10:44.135Z,12.19
2023-03-24T05:13:12.296Z,12.20
2023-03-24T05:15:53.497Z,12.21
2023-03-24T05:18:41.545Z,12.20
2023-03-24T05:21:08.321Z,12.22
2023-03-24T05:23:36.038Z,12.24
2023-03-24T05:26:02.669Z,12.22
2023-03-24T05:28:32.517Z,12.25
2023-03-24T05:31:00.504Z,12.26
2023-03-24T05:33:53.200Z,12.25
2023-03-24T05:36:21.525Z,12.25
2023-03-24T05:38:54.461Z,12.27
2023-03-24T05:41:24.516Z,12.28
2023-03-24T05:43:51.103Z,12.31
2023-03-24T05:46:18.112Z,12.28
2023-03-24T05:48:46.891Z,12.29
2023-03-24T05:51:16.091Z,12.29
2023-03-24T05:53:43.337Z,12.27
2023-03-24T05:56:15.594Z,12.31
2023-03-24T05:59:03.262Z,12.35
2023-03-24T06:01:58.490Z,12.32
2023-03-24T06:04:57.709Z,12.37
2023-03-24T06:07:26.799Z,12.38
2023-03-24T06:09:57.907Z,12.37
2023-03-24T06:12:25.012Z,12.39
2023-03-24T06:14:59.219Z,12.40
2023-03-24T06:17:30.276Z,12.44
2023-03-24T06:20:05.659Z,12.44
2023-03-24T06:22:34.740Z,12.46
2023-03-24T06:25:05.104Z,12.45
2023-03-24T06:27:33.665Z,12.47
2023-03-24T06:30:00.809Z,12.48
2023-03-24T06:32:27.658Z,12.49
2023-03-24T06:34:54.544Z,12.51
2023-03-24T06:37:38.102Z,12.50
2023-03-24T06:40:12.749Z,12.52
2023-03-24T06:42:44.901Z,12.52
2023-03-24T06:45:11.650Z,12.54
2023-03-24T06:47:38.533Z,12.57
2023-03-24T06:50:07.082Z,12.57
2023-03-24T06:52:34.472Z,12.55
2023-03-24T06:55:01.828Z,12.57
2023-03-24T06:57:30.313Z,12.60
2023-03-24T07:00:19.921Z,12.60
2023-03-24T07:02:59.375Z,12.55
2023-03-24T07:05:27.529Z,12.61
2023-03-24T07:08:27.719Z,12.59
2023-03-24T07:10:45.456Z,12.63
2023-03-24T07:13:12.223Z,12.62
2023-03-24T07:15:40.489Z,12.61
2023-03-24T07:18:08.338Z,12.64
2023-03-24T07:20:41.403Z,12.65
2023-03-24T07:23:16.815Z,12.66
2023-03-24T07:26:06.640Z,12.65
2023-03-24T07:28:52.676Z,12.66
2023-03-24T07:31:27.261Z,12.69
2023-03-24T07:34:01.805Z,12.73
2023-03-24T07:36:28.749Z,12.75
2023-03-24T07:38:56.805Z,12.76
2023-03-24T07:41:29.724Z,12.75
2023-03-24T07:44:00.552Z,12.77
2023-03-24T07:46:33.382Z,12.81
2023-03-24T07:49:11.835Z,12.81
2023-03-24T07:51:44.529Z,12.81
2023-03-24T07:54:21.643Z,12.82
2023-03-24T07:56:48.896Z,12.86
2023-03-24T07:59:15.553Z,12.88
2023-03-24T08:02:17.619Z,12.87
2023-03-24T08:05:21.739Z,12.92
2023-03-24T08:07:55.409Z,12.93
2023-03-24T08:10:27.758Z,12.92
2023-03-24T08:12:54.956Z,12.94
2023-03-24T08:15:21.513Z,12.97
2023-03-24T08:17:49.404Z,12.97
2023-03-24T08:20:16.761Z,12.98
2023-03-24T08:22:45.534Z,13.00
2023-03-24T08:25:13.365Z,13.02
2023-03-24T08:27:40.590Z,13.01
2023-03-24T08:30:10.537Z,13.03
2023-03-24T08:32:37.585Z,13.03
2023-03-24T08:35:05.058Z,13.04
2023-03-24T08:37:31.879Z,13.02
2023-03-24T08:39:58.679Z,13.05
2023-03-24T08:42:26.051Z,13.05
2023-03-24T08:44:53.069Z,13.06
2023-03-24T08:47:19.560Z,13.04
2023-03-24T08:49:45.956Z,13.07
2023-03-24T08:52:12.359Z,13.07
2023-03-24T08:54:38.793Z,13.10
2023-03-24T08:57:05.404Z,13.07
2023-03-24T08:59:31.873Z,13.11
2023-03-24T09:01:58.314Z,13.11
2023-03-24T09:04:24.796Z,13.10
2023-03-24T09:06:53.506Z,13.12
2023-03-24T09:09:19.935Z,13.10
2023-03-24T09:11:46.696Z,13.12
2023-03-24T09:14:13.146Z,13.14
2023-03-24T09:16:40.558Z,13.11
2023-03-24T09:19:07.592Z,13.13
2023-03-24T09:21:33.993Z,13.13
2023-03-24T09:24:01.752Z,13.12
2023-03-24T09:26:28.540Z,13.11
2023-03-24T09:28:55.744Z,13.11
2023-03-24T09:31:22.374Z,13.12
2023-03-24T09:33:48.821Z,13.14
2023-03-24T09:36:15.434Z,13.13
2023-03-24T09:38:42.085Z,13.12
2023-03-24T09:41:18.572Z,13.13
2023-03-24T09:43:52.176Z,13.18
2023-03-24T09:46:29.930Z,13.17
2023-03-24T09:48:57.593Z,13.18
2023-03-24T09:51:27.545Z,13.19
2023-03-24T09:54:22.264Z,13.21
2023-03-24T09:56:51.524Z,13.19
2023-03-24T09:59:19.569Z,13.24
2023-03-24T10:01:48.602Z,13.25
2023-03-24T10:04:21.043Z,13.22
2023-03-24T10:06:53.215Z,13.28
2023-03-24T10:09:30.952Z,13.29
2023-03-24T10:12:23.736Z,13.31
2023-03-24T10:14:59.347Z,13.33
2023-03-24T10:17:41.422Z,13.32
2023-03-24T10:20:19.679Z,13.34
2023-03-24T10:23:10.939Z,13.34
2023-03-24T10:25:51.388Z,13.36
2023-03-24T10:28:28.033Z,13.34
2023-03-24T10:30:59.838Z,13.40
2023-03-24T10:33:26.984Z,13.46
2023-03-24T10:36:14.625Z,13.45
2023-03-24T10:38:41.948Z,13.48
2023-03-24T10:41:16.790Z,13.47
2023-03-24T10:43:44.745Z,13.50
2023-03-24T10:46:18.338Z,13.52
2023-03-24T10:48:47.807Z,13.52
2023-03-24T10:51:16.269Z,13.55
2023-03-24T10:53:47.734Z,13.56
2023-03-24T10:56:36.688Z,13.56
2023-03-24T10:59:03.305Z,13.55
2023-03-24T11:01:31.427Z,13.60
2023-03-24T11:04:05.030Z,13.56
2023-03-24T11:06:32.470Z,13.46
2023-03-24T11:09:20.666Z,13.60
2023-03-24T11:11:47.665Z,13.60
2023-03-24T11:14:27.268Z,13.63
2023-03-24T11:17:10.345Z,13.63
2023-03-24T11:19:36.859Z,13.63
2023-03-24T11:22:06.617Z,13.59
2023-03-24T11:24:38.171Z,13.65
2023-03-24T11:27:05.041Z,13.67
2023-03-24T11:29:39.682Z,13.64
2023-03-24T11:32:13.965Z,13.66
2023-03-24T11:34:49.850Z,13.61
2023-03-24T11:37:22.928Z,13.66
2023-03-24T11:40:16.809Z,13.65
2023-03-24T11:42:46.137Z,13.62
2023-03-24T11:45:38.052Z,13.66
2023-03-24T11:48:30.159Z,13.65
2023-03-24T11:50:58.673Z,13.67
2023-03-24T11:53:34.703Z,13.70
2023-03-24T11:56:27.728Z,13.66
2023-03-24T11:59:38.891Z,13.69
2023-03-24T12:02:08.324Z,13.71
2023-03-24T12:04:56.787Z,13.72
2023-03-24T12:07:41.631Z,13.74
2023-03-24T12:10:33.345Z,13.74
2023-03-24T12:13:26.024Z,13.73
2023-03-24T12:16:09.646Z,13.76
2023-03-24T12:18:52.371Z,13.80
2023-03-24T12:21:48.193Z,13.77
2023-03-24T12:24:46.774Z,13.79
2023-03-24T12:27:35.009Z,13.83
2023-03-24T12:30:18.889Z,13.85
2023-03-24T12:33:17.305Z,13.82
2023-03-24T12:36:09.280Z,13.86
2023-03-24T12:38:49.038Z,13.92
2023-03-24T12:41:34.510Z,13.93
2023-03-24T12:44:16.389Z,13.96
2023-03-24T12:47:02.682Z,13.97
2023-03-24T12:49:55.670Z,13.97
2023-03-24T12:52:43.910Z,13.98
2023-03-24T12:55:18.015Z,14.03
2023-03-24T12:57:51.804Z,14.04
2023-03-24T13:00:27.353Z,14.04
2023-03-24T13:03:11.511Z,14.05
2023-03-24T13:05:45.488Z,14.10
2023-03-24T13:08:22.804Z,14.12
2023-03-24T13:10:54.391Z,14.12
2023-03-24T13:13:25.511Z,14.17
2023-03-24T13:15:58.540Z,14.18
2023-03-24T13:18:48.247Z,14.16
2023-03-24T13:21:19.709Z,14.21
2023-03-24T13:24:14.877Z,14.21
2023-03-24T13:27:12.061Z,14.22
2023-03-24T13:30:08.981Z,14.20
2023-03-24T13:32:41.689Z,14.22
2023-03-24T13:35:49.296Z,14.27
2023-03-24T13:38:26.282Z,14.30
2023-03-24T13:40:54.400Z,14.27
2023-03-24T13:43:24.633Z,14.30
2023-03-24T13:45:59.169Z,14.34
2023-03-24T13:48:37.585Z,14.34
2023-03-24T13:51:26.541Z,14.31
2023-03-24T13:54:00.234Z,14.35
2023-03-24T13:56:45.326Z,14.33
2023-03-24T13:59:24.642Z,14.35
2023-03-24T14:02:17.555Z,14.34
2023-03-24T14:05:08.998Z,14.35
2023-03-24T14:07:44.895Z,14.30
2023-03-24T14:10:13.963Z,14.35
2023-03-24T14:12:59.015Z,14.36
2023-03-24T14:15:49.370Z,14.33
2023-03-24T14:18:26.222Z,14.35
2023-03-24T14:20:55.963Z,14.37
2023-03-24T14:23:37.584Z,14.25
2023-03-24T14:26:07.249Z,14.36
2023-03-24T14:28:55.185Z,14.34
2023-03-24T14:31:24.641Z,14.32
2023-03-24T14:33:54.447Z,14.35
2023-03-24T14:36:35.091Z,14.35
2023-03-24T14:39:32.146Z,14.30
2023-03-24T14:41:59.480Z,14.33
2023-03-24T14:44:44.890Z,14.32
2023-03-24T14:47:15.866Z,14.33
2023-03-24T14:49:46.018Z,14.32
2023-03-24T14:52:13.559Z,14.32
2023-03-24T14:54:46.126Z,14.29
2023-03-24T14:57:43.215Z,14.27
2023-03-24T15:00:24.827Z,14.28
2023-03-24T15:03:24.096Z,14.23
2023-03-24T15:05:50.661Z,14.28
2023-03-24T15:08:21.620Z,14.28
2023-03-24T15:10:52.803Z,14.27
2023-03-24T15:13:39.891Z,14.22
2023-03-24T15:16:12.685Z,14.27
2023-03-24T15:19:01.397Z,14.26
2023-03-24T15:21:48.885Z,14.27
2023-03-24T15:24:25.243Z,14.25
2023-03-24T15:27:17.891Z,14.10
2023-03-24T15:29:46.092Z,14.23
2023-03-24T15:32:19.251Z,14.25
2023-03-24T15:34:52.746Z,14.23
2023-03-24T15:37:49.035Z,14.21
2023-03-24T15:40:27.859Z,14.25
2023-03-24T15:42:57.547Z,14.26
2023-03-24T15:45:28.712Z,14.28
2023-03-24T15:47:56.188Z,14.22
2023-03-24T15:50:35.817Z,14.26
2023-03-24T15:53:24.942Z,14.26
2023-03-24T15:56:21.952Z,14.27
2023-03-24T15:58:50.392Z,14.28
2023-03-24T16:01:20.988Z,14.14
2023-03-24T16:03:51.004Z,14.25
2023-03-24T16:06:29.936Z,14.25
2023-03-24T16:09:11.872Z,14.23
2023-03-24T16:11:38.333Z,14.24
2023-03-24T16:14:20.403Z,14.22
2023-03-24T16:16:47.168Z,14.25
2023-03-24T16:19:13.691Z,14.22
2023-03-24T16:21:40.446Z,14.22
2023-03-24T16:24:07.347Z,14.25
2023-03-24T16:26:33.884Z,14.20
2023-03-24T16:29:16.219Z,14.22
2023-03-24T16:31:44.070Z,14.18
2023-03-24T16:34:10.687Z,14.16
2023-03-24T16:36:37.140Z,14.04
2023-03-24T16:39:12.908Z,14.18
2023-03-24T16:41:39.402Z,14.16
2023-03-24T16:44:05.889Z,14.10
2023-03-24T16:46:34.593Z,14.12
2023-03-24T16:49:02.970Z,14.14
2023-03-24T16:51:29.849Z,14.11
2023-03-24T16:53:56.603Z,14.11
2023-03-24T16:56:24.278Z,14.10
2023-03-24T16:58:53.239Z,14.04
2023-03-24T17:01:40.721Z,14.03
2023-03-24T17:04:11.902Z,14.03
2023-03-24T17:06:41.046Z,14.05
2023-03-24T17:09:08.502Z,14.03
2023-03-24T17:11:41.555Z,13.97
2023-03-24T17:14:14.624Z,13.95
2023-03-24T17:16:46.245Z,13.98
2023-03-24T17:19:15.377Z,13.97
2023-03-24T17:21:47.316Z,13.88
2023-03-24T17:24:14.309Z,13.91
2023-03-24T17:26:42.370Z,13.90
2023-03-24T17:29:13.182Z,13.85
2023-03-24T17:31:40.387Z,13.82
2023-03-24T17:34:20.558Z,13.81
2023-03-24T17:36:50.382Z,13.80
2023-03-24T17:39:18.509Z,13.80
2023-03-24T17:41:45.476Z,13.78
2023-03-24T17:44:12.402Z,13.73
2023-03-24T17:46:39.014Z,13.75
2023-03-24T17:49:06.356Z,13.72
2023-03-24T17:51:32.962Z,13.70
2023-03-24T17:53:59.828Z,13.67
2023-03-24T17:56:26.696Z,13.57
2023-03-24T17:58:55.028Z,13.62
2023-03-24T18:01:22.034Z,13.56
2023-03-24T18:03:49.680Z,13.60
2023-03-24T18:06:16.786Z,13.42
2023-03-24T18:08:43.484Z,13.51
2023-03-24T18:11:12.972Z,13.35
2023-03-24T18:13:39.604Z,13.45
2023-03-24T18:16:19.803Z,13.39
2023-03-24T18:18:47.862Z,13.45
2023-03-24T18:21:14.815Z,13.41
2023-03-24T18:23:41.467Z,13.35
2023-03-24T18:26:08.778Z,13.39
2023-03-24T18:28:37.851Z,13.37
2023-03-24T18:31:09.583Z,13.32
2023-03-24T18:33:36.126Z,13.24
2023-03-24T18:36:04.324Z,13.22
2023-03-24T18:38:31.047Z,13.12
2023-03-24T18:41:03.455Z,13.23
2023-03-24T18:43:30.627Z,13.20
2023-03-24T18:45:57.723Z,13.12
2023-03-24T18:48:24.203Z,13.19
2023-03-24T18:50:51.746Z,13.17
2023-03-24T18:53:19.288Z,13.04
2023-03-24T18:55:49.365Z,12.94
2023-03-24T18:58:17.754Z,13.05
2023-03-24T19:00:53.198Z,13.08
2023-03-24T19:03:22.168Z,13.05
2023-03-24T19:05:49.927Z,12.96
2023-03-24T19:08:16.963Z,13.00
2023-03-24T19:10:43.522Z,13.00
2023-03-24T19:13:12.654Z,12.93
2023-03-24T19:15:40.211Z,12.80
2023-03-24T19:18:07.509Z,12.92
2023-03-24T19:20:35.068Z,12.86
2023-03-24T19:23:01.927Z,12.83
2023-03-24T19:25:28.457Z,12.82
2023-03-24T19:27:55.000Z,12.81
2023-03-24T19:30:21.536Z,12.81
2023-03-24T19:32:48.073Z,12.74
2023-03-24T19:35:14.943Z,12.74
2023-03-24T19:37:41.658Z,12.71
2023-03-24T19:40:11.759Z,12.68
2023-03-24T19:42:42.346Z,12.64
2023-03-24T19:45:11.430Z,12.68
2023-03-24T19:47:38.275Z,12.62
2023-03-24T19:50:07.481Z,12.62
2023-03-24T19:52:34.527Z,12.62
2023-03-24T19:55:01.047Z,12.52
2023-03-24T19:57:30.381Z,12.57
2023-03-24T19:59:57.407Z,12.49
2023-03-24T20:02:24.732Z,12.43
2023-03-24T20:04:52.037Z,12.48
2023-03-24T20:07:18.608Z,12.46
2023-03-24T20:09:45.525Z,12.40
2023-03-24T20:12:12.154Z,12.40
2023-03-24T20:14:38.600Z,12.40
2023-03-24T20:17:05.277Z,12.22
2023-03-24T20:19:31.949Z,12.27
2023-03-24T20:21:58.407Z,12.24
2023-03-24T20:24:24.896Z,12.25
2023-03-24T20:26:51.650Z,12.26
2023-03-24T20:29:18.165Z,12.27
2023-03-24T20:31:44.817Z,12.27
2023-03-24T20:34:11.447Z,12.21
2023-03-24T20:36:38.464Z,12.14
2023-03-24T20:39:05.892Z,12.14
2023-03-24T20:41:34.034Z,12.18
2023-03-24T20:44:00.530Z,12.14
2023-03-24T20:46:27.054Z,12.12
2023-03-24T20:48:53.632Z,12.08
2023-03-24T20:51:20.410Z,12.11
2023-03-24T20:53:49.767Z,12.01
2023-03-24T20:56:16.974Z,12.06
2023-03-24T20:58:45.333Z,12.06
2023-03-24T21:01:24.047Z,11.95
2023-03-24T21:03:52.627Z,12.00
2023-03-24T21:06:20.585Z,11.98
2023-03-24T21:08:47.589Z,11.97
2023-03-24T21:11:14.288Z,11.95
2023-03-24T21:13:40.773Z,11.84
2023-03-24T21:16:09.099Z,11.92
2023-03-24T21:18:37.558Z,11.84
2023-03-24T21:21:05.154Z,11.87
2023-03-24T21:23:34.183Z,11.89
2023-03-24T21:26:02.016Z,11.85
2023-03-24T21:28:30.865Z,11.84
2023-03-24T21:30:58.595Z,11.83
2023-03-24T21:33:25.489Z,11.79
2023-03-24T21:35:55.361Z,11.79
2023-03-24T21:38:22.016Z,11.77
2023-03-24T21:40:56.817Z,11.67
2023-03-24T21:43:23.531Z,11.73
2023-03-24T21:45:53.828Z,11.64
2023-03-24T21:48:24.823Z,11.59
2023-03-24T21:50:53.192Z,11.67
2023-03-24T21:53:20.884Z,11.66
2023-03-24T21:56:04.276Z,11.66
2023-03-24T21:58:34.832Z,11.63
2023-03-24T22:01:02.271Z,11.60
2023-03-24T22:03:28.795Z,11.59
2023-03-24T22:05:56.955Z,11.60
2023-03-24T22:08:26.539Z,11.55
2023-03-24T22:11:00.673Z,11.60
2023-03-24T22:13:28.417Z,11.59
2023-03-24T22:15:56.137Z,11.55
2023-03-24T22:18:23.990Z,11.57
2023-03-24T22:21:03.018Z,11.56
2023-03-24T22:23:36.635Z,11.54
2023-03-24T22:26:12.020Z,11.53
2023-03-24T22:28:39.072Z,11.54
2023-03-24T22:31:11.249Z,11.53
2023-03-24T22:33:38.511Z,11.53
2023-03-24T22:36:06.647Z,11.49
2023-03-24T22:38:34.399Z,11.46
2023-03-24T22:41:03.724Z,11.48
2023-03-24T22:43:31.005Z,11.42
2023-03-24T22:45:57.732Z,11.48
2023-03-24T22:48:24.485Z,11.41
2023-03-24T22:50:51.393Z,11.34
2023-03-24T22:53:18.265Z,11.38
2023-03-24T22:55:45.121Z,11.43
2023-03-24T22:58:13.370Z,11.44
2023-03-24T23:00:45.003Z,11.42
2023-03-24T23:03:11.773Z,11.40
2023-03-24T23:05:46.117Z,11.38
2023-03-24T23:08:14.420Z,11.38
2023-03-24T23:10:43.741Z,11.37
2023-03-24T23:13:10.654Z,11.34
2023-03-24T23:15:42.302Z,11.22
2023-03-24T23:18:09.143Z,11.31
2023-03-24T23:20:36.405Z,11.29
2023-03-24T23:23:05.867Z,11.20
2023-03-24T23:25:34.596Z,11.31
2023-03-24T23:28:01.692Z,11.28
2023-03-24T23:30:28.166Z,11.30
2023-03-24T23:32:57.507Z,11.23
2023-03-24T23:35:24.568Z,11.21
2023-03-24T23:37:51.084Z,11.24
2023-03-24T23:40:19.003Z,11.28
2023-03-24T23:42:47.268Z,11.25
2023-03-24T23:45:17.802Z,11.23
2023-03-24T23:47:47.283Z,11.18
2023-03-24T23:50:17.843Z,11.10
2023-03-24T23:52:44.475Z,11.15
2023-03-24T23:55:13.254Z,11.26
2023-03-24T23:57:41.524Z,11.18
